Time;durP1;ratioP1;P1;durP2;ratioP2;P2;SDS_P1;SDS_P2;PMS_P1;PMS_P2;Temp;Humidity;BMP_temperature;BMP_pressure;BME280_temperature;BME280_humidity;BME280_pressure;Samples;Min_cycle;Max_cycle;Signal;HPM_P1;HPM_P2
2023/03/17 00:00:16;;;;;;;51.45;32.35;;;;;;;;;;5051486;28;20478;-76
2023/03/17 00:02:44;;;;;;;76.63;40.17;;;;;;;;;;5060985;28;20056;-76
2023/03/17 00:05:17;;;;;;;87.22;44.97;;;;;;;;;;5049775;28;20077;-76
2023/03/17 00:07:45;;;;;;;84.57;47.42;;;;;;;;;;5065240;28;20465;-76
2023/03/17 00:10:15;;;;;;;78.47;45.63;;;;;;;;;;5070512;28;20531;-76
2023/03/17 00:12:42;;;;;;;79.93;44.58;;;;;;;;;;5070066;28;20032;-77
2023/03/17 00:15:09;;;;;;;74.20;44.20;;;;;;;;;;5052723;28;20055;-76
2023/03/17 00:17:35;;;;;;;66.38;36.30;;;;;;;;;;5070170;28;20405;-76
2023/03/17 00:20:01;;;;;;;36.42;21.50;;;;;;;;;;5070415;28;20028;-77
2023/03/17 00:22:27;;;;;;;26.20;16.58;;;;;;;;;;5070210;28;20033;-76
2023/03/17 00:24:54;;;;;;;22.65;13.45;;;;;;;;;;5066980;28;20549;-76
2023/03/17 00:27:20;;;;;;;23.45;14.40;;;;;;;;;;5070563;28;20028;-76
2023/03/17 00:29:46;;;;;;;19.60;12.95;;;;;;;;;;5072881;28;20593;-76
2023/03/17 00:32:16;;;;;;;22.35;13.68;;;;;;;;;;5070988;28;20040;-76
2023/03/17 00:34:42;;;;;;;22.27;15.38;;;;;;;;;;5071635;28;20124;-76
2023/03/17 00:37:11;;;;;;;26.73;15.48;;;;;;;;;;5070690;28;20064;-76
2023/03/17 00:39:38;;;;;;;34.60;20.63;;;;;;;;;;5063176;28;20021;-76
2023/03/17 00:42:05;;;;;;;35.42;21.63;;;;;;;;;;5051834;28;20072;-76
2023/03/17 00:44:32;;;;;;;40.20;25.05;;;;;;;;;;5064690;28;20656;-76
2023/03/17 00:46:58;;;;;;;33.38;21.42;;;;;;;;;;5051646;28;20063;-76
2023/03/17 00:49:25;;;;;;;46.22;28.10;;;;;;;;;;5074635;28;20028;-76
2023/03/17 00:51:51;;;;;;;64.53;35.15;;;;;;;;;;5048350;28;20038;-76
2023/03/17 00:54:18;;;;;;;63.33;35.85;;;;;;;;;;5068617;28;20024;-76
2023/03/17 00:56:44;;;;;;;59.70;31.63;;;;;;;;;;5070729;28;20766;-76
2023/03/17 00:59:17;;;;;;;47.90;30.50;;;;;;;;;;5069052;28;20035;-76
2023/03/17 01:01:43;;;;;;;46.67;30.05;;;;;;;;;;5064609;28;20461;-76
2023/03/17 01:04:09;;;;;;;37.72;22.48;;;;;;;;;;5069826;28;20091;-77
2023/03/17 01:06:36;;;;;;;32.65;18.75;;;;;;;;;;5069738;28;20032;-76
2023/03/17 01:09:02;;;;;;;31.48;19.67;;;;;;;;;;5068423;28;20025;-76
2023/03/17 01:11:28;;;;;;;37.97;23.50;;;;;;;;;;5069204;28;20039;-76
2023/03/17 01:13:55;;;;;;;37.75;25.17;;;;;;;;;;5054286;28;20035;-76
2023/03/17 01:16:21;;;;;;;28.38;20.70;;;;;;;;;;5065213;28;20366;-76
2023/03/17 01:18:48;;;;;;;24.27;16.73;;;;;;;;;;5063611;28;20068;-77
2023/03/17 01:21:14;;;;;;;29.80;18.58;;;;;;;;;;5068623;28;20155;-76
2023/03/17 01:23:40;;;;;;;27.42;18.00;;;;;;;;;;5069806;28;20041;-77
2023/03/17 01:26:06;;;;;;;37.25;23.42;;;;;;;;;;5066842;28;20100;-76
2023/03/17 01:28:33;;;;;;;52.55;30.27;;;;;;;;;;5069415;28;20082;-76
2023/03/17 01:30:59;;;;;;;44.45;25.90;;;;;;;;;;5069870;28;20040;-76
2023/03/17 01:33:25;;;;;;;48.30;27.42;;;;;;;;;;5054067;28;20492;-76
2023/03/17 01:35:51;;;;;;;42.03;27.02;;;;;;;;;;5065570;28;20076;-76
2023/03/17 01:38:17;;;;;;;50.08;30.50;;;;;;;;;;5069284;28;20043;-77
2023/03/17 01:40:49;;;;;;;49.40;28.40;;;;;;;;;;5065480;28;20389;-76
2023/03/17 01:43:18;;;;;;;47.70;25.40;;;;;;;;;;5061567;28;20032;-76
2023/03/17 01:46:02;;;;;;;41.58;23.27;;;;;;;;;;5067703;28;20036;-76
2023/03/17 01:48:31;;;;;;;37.72;21.63;;;;;;;;;;5068273;28;20090;-76
2023/03/17 01:50:57;;;;;;;37.50;18.38;;;;;;;;;;5059704;28;20045;-76
2023/03/17 01:53:24;;;;;;;29.67;17.58;;;;;;;;;;5068779;28;20029;-77
2023/03/17 01:55:50;;;;;;;32.20;16.83;;;;;;;;;;5061772;28;20465;-76
2023/03/17 01:58:18;;;;;;;31.23;18.60;;;;;;;;;;5073903;28;20029;-77
2023/03/17 02:00:45;;;;;;;25.85;16.63;;;;;;;;;;5050070;28;20028;-76
2023/03/17 02:03:11;;;;;;;28.20;14.73;;;;;;;;;;5068527;28;20127;-76
2023/03/17 02:05:38;;;;;;;23.88;13.35;;;;;;;;;;5077504;28;20058;-77
2023/03/17 02:08:09;;;;;;;29.92;15.13;;;;;;;;;;5068506;28;20510;-77
2023/03/17 02:10:35;;;;;;;23.90;13.00;;;;;;;;;;5067809;28;20037;-76
2023/03/17 02:13:04;;;;;;;23.90;13.30;;;;;;;;;;5047768;28;20029;-76
2023/03/17 02:15:38;;;;;;;24.65;13.32;;;;;;;;;;5065324;28;20021;-76
2023/03/17 02:18:05;;;;;;;22.50;13.90;;;;;;;;;;5068890;28;20028;-77
2023/03/17 02:20:31;;;;;;;21.15;12.80;;;;;;;;;;5063524;28;20075;-76
2023/03/17 02:22:58;;;;;;;19.48;12.38;;;;;;;;;;5049748;28;20036;-77
2023/03/17 02:25:25;;;;;;;20.05;12.18;;;;;;;;;;5068628;28;20051;-77
2023/03/17 02:27:54;;;;;;;18.73;12.93;;;;;;;;;;5068061;28;20115;-76
2023/03/17 02:30:22;;;;;;;18.60;11.50;;;;;;;;;;5068600;28;20116;-77
2023/03/17 02:32:48;;;;;;;17.63;12.45;;;;;;;;;;5066923;28;20091;-76
2023/03/17 02:35:14;;;;;;;19.30;11.13;;;;;;;;;;5068265;28;20488;-77
2023/03/17 02:37:42;;;;;;;17.85;11.20;;;;;;;;;;5067443;28;20037;-77
2023/03/17 02:40:10;;;;;;;18.52;11.45;;;;;;;;;;5050309;28;20028;-77
2023/03/17 02:42:38;;;;;;;17.15;11.07;;;;;;;;;;5061548;28;20482;-77
2023/03/17 02:45:05;;;;;;;16.30;10.18;;;;;;;;;;5068207;28;20044;-77
2023/03/17 02:47:31;;;;;;;16.02;10.63;;;;;;;;;;5064311;28;20028;-76
2023/03/17 02:49:57;;;;;;;17.50;9.25;;;;;;;;;;5068082;28;20043;-76
2023/03/17 02:52:23;;;;;;;15.88;9.60;;;;;;;;;;5067627;28;20035;-77
2023/03/17 02:54:50;;;;;;;18.27;9.63;;;;;;;;;;5055455;28;20060;-76
2023/03/17 02:57:16;;;;;;;18.48;10.05;;;;;;;;;;5056669;28;20462;-77
2023/03/17 02:59:42;;;;;;;19.42;10.23;;;;;;;;;;5065147;28;20112;-76
2023/03/17 03:02:08;;;;;;;18.17;12.43;;;;;;;;;;5062558;28;20515;-77
2023/03/17 03:04:34;;;;;;;18.13;12.25;;;;;;;;;;5062008;28;20029;-77
2023/03/17 03:07:01;;;;;;;14.73;10.75;;;;;;;;;;5066417;28;20782;-77
2023/03/17 03:09:28;;;;;;;21.15;14.23;;;;;;;;;;5065703;28;20616;-77
2023/03/17 03:11:54;;;;;;;20.73;14.98;;;;;;;;;;5085302;28;20040;-76
2023/03/17 03:14:21;;;;;;;18.38;12.57;;;;;;;;;;5067924;28;20456;-76
2023/03/17 03:16:47;;;;;;;20.95;12.73;;;;;;;;;;5071590;28;20038;-77
2023/03/17 03:19:13;;;;;;;18.90;13.30;;;;;;;;;;5071330;28;20036;-76
2023/03/17 03:21:39;;;;;;;15.70;11.65;;;;;;;;;;5062819;28;20055;-76
2023/03/17 03:24:06;;;;;;;22.88;14.60;;;;;;;;;;5071136;28;20798;-76
2023/03/17 03:26:32;;;;;;;22.60;14.38;;;;;;;;;;5072106;28;20093;-76
2023/03/17 03:28:58;;;;;;;18.50;13.68;;;;;;;;;;5071300;28;20086;-77
2023/03/17 03:31:25;;;;;;;17.90;12.23;;;;;;;;;;5071623;28;20065;-76
2023/03/17 03:33:51;;;;;;;19.50;13.68;;;;;;;;;;5068286;28;20103;-77
2023/03/17 03:36:17;;;;;;;20.38;13.65;;;;;;;;;;5071518;28;20056;-77
2023/03/17 03:38:43;;;;;;;19.45;12.70;;;;;;;;;;5060728;28;20032;-76
2023/03/17 03:41:10;;;;;;;19.65;13.50;;;;;;;;;;5066040;28;20037;-77
2023/03/17 03:43:36;;;;;;;21.65;14.30;;;;;;;;;;5070155;28;20486;-77
2023/03/17 03:46:03;;;;;;;21.50;15.73;;;;;;;;;;5063269;28;20079;-76
2023/03/17 03:48:28;;;;;;;22.00;17.15;;;;;;;;;;5067338;28;20079;-77
2023/03/17 03:50:55;;;;;;;24.77;14.13;;;;;;;;;;5065111;28;20025;-77
2023/03/17 03:53:22;;;;;;;20.50;14.35;;;;;;;;;;5065826;28;20029;-76
2023/03/17 03:55:47;;;;;;;22.98;14.38;;;;;;;;;;5073446;28;20024;-77
2023/03/17 03:58:14;;;;;;;26.90;16.20;;;;;;;;;;5070820;28;20036;-76
2023/03/17 04:00:40;;;;;;;22.52;14.90;;;;;;;;;;5069300;28;20024;-76
2023/03/17 04:03:06;;;;;;;21.92;14.15;;;;;;;;;;5070122;28;20482;-77
2023/03/17 04:05:32;;;;;;;21.08;12.55;;;;;;;;;;5070205;28;20397;-77
2023/03/17 04:07:58;;;;;;;19.33;13.07;;;;;;;;;;5067471;28;20119;-76
2023/03/17 04:10:24;;;;;;;20.80;15.00;;;;;;;;;;5064276;28;20594;-77
2023/03/17 04:12:50;;;;;;;19.83;14.95;;;;;;;;;;5060308;28;20029;-76
2023/03/17 04:15:18;;;;;;;21.73;14.27;;;;;;;;;;5064838;28;20032;-76
2023/03/17 04:17:44;;;;;;;21.83;17.15;;;;;;;;;;5055801;28;20020;-76
2023/03/17 04:20:12;;;;;;;21.88;14.43;;;;;;;;;;5053119;28;20031;-77
2023/03/17 04:22:38;;;;;;;23.33;14.98;;;;;;;;;;5068363;28;20488;-77
2023/03/17 04:25:04;;;;;;;23.25;15.50;;;;;;;;;;5068248;28;20120;-76
2023/03/17 04:27:31;;;;;;;23.48;13.52;;;;;;;;;;5078779;28;20048;-77
2023/03/17 04:29:57;;;;;;;24.25;16.38;;;;;;;;;;5051231;28;20032;-76
2023/03/17 04:32:23;;;;;;;22.63;14.20;;;;;;;;;;5073909;28;20036;-77
2023/03/17 04:34:49;;;;;;;23.42;15.55;;;;;;;;;;5069212;28;20029;-76
2023/03/17 04:37:15;;;;;;;50.20;33.55;;;;;;;;;;5052158;28;20082;-76
2023/03/17 04:39:41;;;;;;;36.33;22.92;;;;;;;;;;5070023;28;20028;-77
2023/03/17 04:42:07;;;;;;;88.18;52.15;;;;;;;;;;5070987;28;20036;-76
2023/03/17 04:44:33;;;;;;;49.55;29.27;;;;;;;;;;5069970;28;20479;-77
2023/03/17 04:46:59;;;;;;;37.10;24.80;;;;;;;;;;5071845;28;20033;-77
2023/03/17 04:49:26;;;;;;;31.73;22.75;;;;;;;;;;5069355;28;20083;-77
2023/03/17 04:51:52;;;;;;;37.58;26.05;;;;;;;;;;5073287;28;20028;-76
2023/03/17 04:54:18;;;;;;;32.95;24.15;;;;;;;;;;5069585;28;20032;-77
2023/03/17 04:56:44;;;;;;;39.13;28.70;;;;;;;;;;5070239;28;20532;-76
2023/03/17 04:59:10;;;;;;;34.47;25.45;;;;;;;;;;5052037;28;20123;-76
2023/03/17 05:01:36;;;;;;;45.78;34.97;;;;;;;;;;5047527;28;20123;-77
2023/03/17 05:04:03;;;;;;;42.22;35.88;;;;;;;;;;5044355;28;20036;-76
2023/03/17 05:06:29;;;;;;;45.72;35.70;;;;;;;;;;5044059;28;20044;-76
2023/03/17 05:08:55;;;;;;;43.80;35.10;;;;;;;;;;5050154;28;20056;-76
2023/03/17 05:11:21;;;;;;;42.20;31.48;;;;;;;;;;5023974;28;20061;-76
2023/03/17 05:13:47;;;;;;;43.47;34.10;;;;;;;;;;5049809;28;20056;-76
2023/03/17 05:16:13;;;;;;;49.20;33.83;;;;;;;;;;5049115;28;20075;-77
2023/03/17 05:18:40;;;;;;;40.17;35.60;;;;;;;;;;5049661;28;20493;-77
2023/03/17 05:21:06;;;;;;;40.65;33.95;;;;;;;;;;5044978;28;20382;-76
2023/03/17 05:23:33;;;;;;;47.28;38.30;;;;;;;;;;5046458;28;20029;-77
2023/03/17 05:25:59;;;;;;;37.72;30.33;;;;;;;;;;5048952;28;21068;-77
2023/03/17 05:28:25;;;;;;;34.55;28.98;;;;;;;;;;5056014;28;20028;-76
2023/03/17 05:30:52;;;;;;;32.92;26.17;;;;;;;;;;5043952;28;20532;-76
2023/03/17 05:33:18;;;;;;;34.33;27.80;;;;;;;;;;5048774;28;20367;-76
2023/03/17 05:35:45;;;;;;;36.85;32.65;;;;;;;;;;5049019;28;20148;-77
2023/03/17 05:38:11;;;;;;;38.67;30.95;;;;;;;;;;5057216;28;20040;-77
2023/03/17 05:40:37;;;;;;;36.92;27.95;;;;;;;;;;5052026;28;20079;-77
2023/03/17 05:43:04;;;;;;;36.15;32.25;;;;;;;;;;5048604;28;20033;-76
2023/03/17 05:45:30;;;;;;;37.85;30.92;;;;;;;;;;5049472;28;20029;-76
2023/03/17 05:47:56;;;;;;;37.47;30.48;;;;;;;;;;5043956;28;20033;-76
2023/03/17 05:50:23;;;;;;;41.08;32.17;;;;;;;;;;5038588;28;20037;-76
2023/03/17 05:52:51;;;;;;;34.35;28.52;;;;;;;;;;5048574;28;20451;-76
2023/03/17 05:55:17;;;;;;;36.65;32.08;;;;;;;;;;5049116;28;20751;-77
2023/03/17 05:57:43;;;;;;;42.85;32.70;;;;;;;;;;5050805;28;20065;-76
2023/03/17 06:00:10;;;;;;;43.10;37.83;;;;;;;;;;5048938;28;20024;-77
2023/03/17 06:02:36;;;;;;;41.65;33.03;;;;;;;;;;5052617;28;20067;-76
2023/03/17 06:05:03;;;;;;;53.80;47.85;;;;;;;;;;5048711;28;20504;-77
2023/03/17 06:07:29;;;;;;;52.30;44.13;;;;;;;;;;5051543;28;20116;-77
2023/03/17 06:09:55;;;;;;;48.42;43.05;;;;;;;;;;5046732;28;20029;-77
2023/03/17 06:12:21;;;;;;;50.05;44.53;;;;;;;;;;5047858;28;20041;-76
2023/03/17 06:14:47;;;;;;;57.70;50.20;;;;;;;;;;5045768;28;20120;-77
2023/03/17 06:17:13;;;;;;;57.22;43.80;;;;;;;;;;5048223;28;20529;-76
2023/03/17 06:19:39;;;;;;;46.35;31.38;;;;;;;;;;5046004;28;20021;-76
2023/03/17 06:22:06;;;;;;;35.38;28.85;;;;;;;;;;5043487;28;20128;-76
2023/03/17 06:24:32;;;;;;;36.35;27.48;;;;;;;;;;5047937;28;20024;-76
2023/03/17 06:26:58;;;;;;;27.40;22.85;;;;;;;;;;5047835;28;20037;-76
2023/03/17 06:29:24;;;;;;;27.45;20.13;;;;;;;;;;5047587;28;20035;-76
2023/03/17 06:31:50;;;;;;;21.48;18.75;;;;;;;;;;5047489;28;20386;-76
2023/03/17 06:34:20;;;;;;;27.67;20.33;;;;;;;;;;5046964;28;20021;-77
2023/03/17 06:36:47;;;;;;;33.95;24.05;;;;;;;;;;5023611;28;20044;-76
2023/03/17 06:39:14;;;;;;;39.47;24.17;;;;;;;;;;5045611;28;20032;-76
2023/03/17 06:41:40;;;;;;;40.22;27.38;;;;;;;;;;5041088;28;20459;-76
2023/03/17 06:44:07;;;;;;;41.92;26.50;;;;;;;;;;5031195;28;20047;-76
2023/03/17 06:46:33;;;;;;;47.95;24.73;;;;;;;;;;5037355;28;20029;-77
2023/03/17 06:49:00;;;;;;;32.33;18.75;;;;;;;;;;5050887;28;20033;-77
2023/03/17 06:51:26;;;;;;;20.02;12.18;;;;;;;;;;5050884;28;20041;-76
2023/03/17 06:53:52;;;;;;;24.10;13.65;;;;;;;;;;5053066;28;20376;-76
2023/03/17 06:56:19;;;;;;;19.70;11.50;;;;;;;;;;5049245;28;20033;-76
2023/03/17 06:58:45;;;;;;;21.83;10.75;;;;;;;;;;5044854;28;20439;-76
2023/03/17 07:01:13;;;;;;;21.90;11.75;;;;;;;;;;5050178;28;20693;-76
2023/03/17 07:03:39;;;;;;;18.08;10.73;;;;;;;;;;5069338;28;20167;-76
2023/03/17 07:06:05;;;;;;;20.13;12.82;;;;;;;;;;5069576;28;20840;-77
2023/03/17 07:08:32;;;;;;;25.00;19.38;;;;;;;;;;5071654;28;20035;-76
2023/03/17 07:10:58;;;;;;;25.95;19.00;;;;;;;;;;5068187;28;20044;-76
2023/03/17 07:13:24;;;;;;;27.20;19.50;;;;;;;;;;5069331;28;20025;-77
2023/03/17 07:15:51;;;;;;;30.63;21.80;;;;;;;;;;5071577;28;20032;-77
2023/03/17 07:18:18;;;;;;;33.08;18.98;;;;;;;;;;5069188;28;20048;-76
2023/03/17 07:20:44;;;;;;;26.42;16.05;;;;;;;;;;5052857;28;20067;-76
2023/03/17 07:23:14;;;;;;;23.73;15.27;;;;;;;;;;5065072;28;20031;-77
2023/03/17 07:25:42;;;;;;;13.85;7.93;;;;;;;;;;5069731;28;20039;-76
2023/03/17 07:28:08;;;;;;;11.65;6.38;;;;;;;;;;5068885;28;20060;-76
2023/03/17 07:30:34;;;;;;;14.60;6.47;;;;;;;;;;5063757;28;20040;-76
2023/03/17 07:33:01;;;;;;;21.67;10.85;;;;;;;;;;5071396;28;20032;-77
2023/03/17 07:35:27;;;;;;;18.92;13.23;;;;;;;;;;5067950;28;20041;-76
2023/03/17 07:37:53;;;;;;;16.20;10.20;;;;;;;;;;5068723;28;21109;-77
2023/03/17 07:40:20;;;;;;;15.98;10.23;;;;;;;;;;5068011;28;20020;-76
2023/03/17 07:42:46;;;;;;;15.68;7.88;;;;;;;;;;5065230;28;20078;-76
2023/03/17 07:45:12;;;;;;;15.48;8.35;;;;;;;;;;5049518;28;20783;-76
2023/03/17 07:47:39;;;;;;;21.65;9.25;;;;;;;;;;5070741;28;20370;-76
2023/03/17 07:50:05;;;;;;;29.38;9.35;;;;;;;;;;5067820;28;20039;-77
2023/03/17 07:52:31;;;;;;;17.55;7.43;;;;;;;;;;5070219;28;20037;-76
2023/03/17 07:54:57;;;;;;;22.17;7.47;;;;;;;;;;5070166;28;20034;-77
2023/03/17 07:57:24;;;;;;;19.10;7.53;;;;;;;;;;5070076;28;20895;-76
2023/03/17 07:59:50;;;;;;;13.35;5.45;;;;;;;;;;5070225;28;20024;-76
2023/03/17 08:02:16;;;;;;;16.02;5.97;;;;;;;;;;5060308;28;20061;-76
2023/03/17 08:04:43;;;;;;;12.57;5.43;;;;;;;;;;5051067;28;20769;-76
2023/03/17 08:07:09;;;;;;;13.48;6.20;;;;;;;;;;5044312;28;20044;-76
2023/03/17 08:09:38;;;;;;;19.25;8.52;;;;;;;;;;5050487;28;20033;-76
2023/03/17 08:12:05;;;;;;;18.63;8.75;;;;;;;;;;5049684;28;20048;-76
2023/03/17 08:14:31;;;;;;;20.00;9.13;;;;;;;;;;5048546;28;20696;-76
2023/03/17 08:16:57;;;;;;;16.17;8.02;;;;;;;;;;5049476;28;20110;-76
2023/03/17 08:19:23;;;;;;;15.07;7.90;;;;;;;;;;5050023;28;20648;-76
2023/03/17 08:21:50;;;;;;;12.30;6.10;;;;;;;;;;5055778;28;20033;-76
2023/03/17 08:24:16;;;;;;;8.38;4.30;;;;;;;;;;5050058;28;20032;-76
2023/03/17 08:26:42;;;;;;;13.27;4.88;;;;;;;;;;5049526;28;20041;-76
2023/03/17 08:29:09;;;;;;;12.50;4.35;;;;;;;;;;5049062;28;20086;-76
2023/03/17 08:31:36;;;;;;;10.93;4.22;;;;;;;;;;5040505;28;20931;-76
2023/03/17 08:34:03;;;;;;;9.65;3.35;;;;;;;;;;5047277;28;20059;-76
2023/03/17 08:36:29;;;;;;;7.57;2.33;;;;;;;;;;5023284;28;20458;-76
2023/03/17 08:38:55;;;;;;;8.82;2.00;;;;;;;;;;5046077;28;20021;-76
2023/03/17 08:41:23;;;;;;;11.73;3.28;;;;;;;;;;5045554;28;20808;-76
2023/03/17 08:43:49;;;;;;;10.63;2.70;;;;;;;;;;5047194;28;20044;-76
2023/03/17 08:46:23;;;;;;;9.13;3.20;;;;;;;;;;5039990;28;20573;-76
2023/03/17 08:48:51;;;;;;;6.65;2.83;;;;;;;;;;5049726;28;20036;-76
2023/03/17 08:51:17;;;;;;;13.88;2.55;;;;;;;;;;5038998;28;20044;-76
2023/03/17 08:53:43;;;;;;;8.07;1.85;;;;;;;;;;5053696;28;20366;-76
2023/03/17 08:56:10;;;;;;;5.00;1.85;;;;;;;;;;5047342;28;20037;-76
2023/03/17 08:58:38;;;;;;;7.45;1.77;;;;;;;;;;5055158;28;20611;-76
2023/03/17 09:01:05;;;;;;;7.03;1.40;;;;;;;;;;5054269;28;20068;-77
2023/03/17 09:03:31;;;;;;;5.43;1.45;;;;;;;;;;5064771;28;20125;-76
2023/03/17 09:05:58;;;;;;;8.05;2.35;;;;;;;;;;5068809;28;20075;-76
2023/03/17 09:08:25;;;;;;;8.68;1.90;;;;;;;;;;5065007;28;20028;-77
2023/03/17 09:10:51;;;;;;;5.90;2.00;;;;;;;;;;5069289;28;20977;-76
2023/03/17 09:13:18;;;;;;;5.60;1.67;;;;;;;;;;5068246;28;20024;-76
2023/03/17 09:15:44;;;;;;;6.55;1.92;;;;;;;;;;5067039;28;20081;-76
2023/03/17 09:18:11;;;;;;;8.50;2.13;;;;;;;;;;5069180;28;20067;-76
2023/03/17 09:20:37;;;;;;;9.10;2.53;;;;;;;;;;5040919;28;20071;-76
2023/03/17 09:23:07;;;;;;;5.90;2.28;;;;;;;;;;5067560;28;20060;-76
2023/03/17 09:25:36;;;;;;;6.70;2.42;;;;;;;;;;5064461;28;20116;-76
2023/03/17 09:28:03;;;;;;;9.68;3.20;;;;;;;;;;5068848;28;20068;-76
2023/03/17 09:30:30;;;;;;;8.68;3.40;;;;;;;;;;5065636;28;20032;-77
2023/03/17 09:32:56;;;;;;;7.25;2.33;;;;;;;;;;5068905;28;20470;-76
2023/03/17 09:35:22;;;;;;;12.52;4.25;;;;;;;;;;5065934;28;20059;-77
2023/03/17 09:37:48;;;;;;;12.52;5.22;;;;;;;;;;5066254;28;20036;-76
2023/03/17 09:40:17;;;;;;;13.93;6.00;;;;;;;;;;5066648;28;20071;-76
2023/03/17 09:42:58;;;;;;;11.70;5.43;;;;;;;;;;5062692;28;20036;-77
2023/03/17 09:45:32;;;;;;;10.48;4.22;;;;;;;;;;5053426;28;20540;-76
2023/03/17 09:48:01;;;;;;;10.20;3.17;;;;;;;;;;5071470;28;20032;-76
2023/03/17 09:50:31;;;;;;;7.28;2.22;;;;;;;;;;5064583;28;20132;-76
2023/03/17 09:52:59;;;;;;;9.25;2.60;;;;;;;;;;5065394;28;20044;-77
2023/03/17 09:55:29;;;;;;;7.10;2.88;;;;;;;;;;5066473;28;20033;-77
2023/03/17 09:57:56;;;;;;;8.98;2.67;;;;;;;;;;5063237;28;20071;-76
2023/03/17 10:00:26;;;;;;;9.88;2.55;;;;;;;;;;5069796;28;20051;-76
2023/03/17 10:02:52;;;;;;;8.32;2.65;;;;;;;;;;5054828;28;20497;-76
2023/03/17 10:05:19;;;;;;;7.95;2.40;;;;;;;;;;5071302;28;20028;-76
2023/03/17 10:07:50;;;;;;;9.43;2.33;;;;;;;;;;5066015;28;20047;-76
2023/03/17 10:10:24;;;;;;;6.10;1.73;;;;;;;;;;5063684;28;20067;-76
2023/03/17 10:12:53;;;;;;;6.95;2.45;;;;;;;;;;5061334;28;20482;-76
2023/03/17 10:15:19;;;;;;;7.25;2.15;;;;;;;;;;5067008;28;20052;-76
2023/03/17 10:17:46;;;;;;;6.43;1.67;;;;;;;;;;5068756;28;20129;-76
2023/03/17 10:20:12;;;;;;;8.82;2.30;;;;;;;;;;5072832;28;20454;-76
2023/03/17 10:22:48;;;;;;;8.65;1.80;;;;;;;;;;5066005;28;20761;-76
2023/03/17 10:25:17;;;;;;;8.02;1.80;;;;;;;;;;5063892;28;20032;-77
2023/03/17 10:27:46;;;;;;;4.32;0.98;;;;;;;;;;5065666;28;20068;-77
2023/03/17 10:30:19;;;;;;;3.28;0.90;;;;;;;;;;5066955;28;20067;-77
2023/03/17 10:32:47;;;;;;;3.05;1.00;;;;;;;;;;5060445;28;20506;-77
2023/03/17 10:35:13;;;;;;;13.77;1.10;;;;;;;;;;5064138;28;20062;-77
2023/03/17 10:37:41;;;;;;;5.63;1.20;;;;;;;;;;5066203;28;20025;-76
2023/03/17 10:40:10;;;;;;;6.13;1.17;;;;;;;;;;5065468;28;20059;-76
2023/03/17 10:42:45;;;;;;;4.38;0.90;;;;;;;;;;5064473;28;20373;-77
2023/03/17 10:45:14;;;;;;;5.22;1.10;;;;;;;;;;5058085;28;20032;-76
2023/03/17 10:47:43;;;;;;;5.22;0.80;;;;;;;;;;5066713;28;20055;-76
2023/03/17 10:50:15;;;;;;;7.45;0.90;;;;;;;;;;5061285;28;20074;-76
2023/03/17 10:52:42;;;;;;;7.30;0.98;;;;;;;;;;5059584;28;20807;-76
2023/03/17 10:55:12;;;;;;;3.42;1.25;;;;;;;;;;5060814;28;20477;-76
2023/03/17 10:57:38;;;;;;;9.20;1.33;;;;;;;;;;5062345;28;20462;-76
2023/03/17 11:00:13;;;;;;;6.18;1.10;;;;;;;;;;5069633;28;20030;-77
2023/03/17 11:02:43;;;;;;;7.10;0.90;;;;;;;;;;5064355;28;20127;-76
2023/03/17 11:05:20;;;;;;;7.72;0.95;;;;;;;;;;5072067;28;20024;-76
2023/03/17 11:07:46;;;;;;;14.57;1.10;;;;;;;;;;5062198;28;20040;-77
2023/03/17 11:10:15;;;;;;;4.57;1.27;;;;;;;;;;5066124;28;20028;-76
2023/03/17 11:12:41;;;;;;;6.15;1.10;;;;;;;;;;5064307;28;20067;-76
2023/03/17 11:15:11;;;;;;;5.03;1.10;;;;;;;;;;5065669;28;20028;-76
2023/03/17 11:17:55;;;;;;;4.78;1.33;;;;;;;;;;5062308;28;20033;-76
2023/03/17 11:20:21;;;;;;;4.65;1.00;;;;;;;;;;5068652;28;20071;-76
2023/03/17 11:22:52;;;;;;;5.18;1.23;;;;;;;;;;5063968;28;20029;-76
2023/03/17 11:25:19;;;;;;;4.03;1.15;;;;;;;;;;5067990;28;20468;-76
2023/03/17 11:27:48;;;;;;;6.32;1.25;;;;;;;;;;5062700;28;20528;-76
2023/03/17 11:30:17;;;;;;;4.40;0.85;;;;;;;;;;5065743;28;20037;-77
2023/03/17 11:32:55;;;;;;;6.30;1.35;;;;;;;;;;5064354;28;20119;-76
2023/03/17 11:35:24;;;;;;;4.63;0.90;;;;;;;;;;5063218;28;20347;-76
2023/03/17 11:38:11;;;;;;;5.95;1.33;;;;;;;;;;5068538;28;20363;-76
2023/03/17 11:40:54;;;;;;;7.05;1.25;;;;;;;;;;5052541;28;20028;-77
2023/03/17 11:43:29;;;;;;;6.53;1.17;;;;;;;;;;5055293;28;20029;-76
2023/03/17 11:46:04;;;;;;;5.90;1.10;;;;;;;;;;5058640;28;20056;-76
2023/03/17 11:48:34;;;;;;;3.95;1.00;;;;;;;;;;5062888;28;20846;-76
2023/03/17 11:51:19;;;;;;;6.13;1.20;;;;;;;;;;5059210;28;20036;-76
2023/03/17 11:54:05;;;;;;;6.97;1.50;;;;;;;;;;5049832;28;20390;-76
2023/03/17 11:56:34;;;;;;;4.18;0.80;;;;;;;;;;5066981;28;20044;-76
2023/03/17 11:59:04;;;;;;;5.85;1.23;;;;;;;;;;5070810;28;20041;-76
2023/03/17 12:01:46;;;;;;;4.85;1.02;;;;;;;;;;5062485;28;20033;-76
2023/03/17 12:04:21;;;;;;;6.55;1.15;;;;;;;;;;5062624;28;20576;-77
2023/03/17 12:06:50;;;;;;;5.07;1.00;;;;;;;;;;5063571;28;20123;-76
2023/03/17 12:09:35;;;;;;;5.15;1.70;;;;;;;;;;5044941;28;20045;-76
2023/03/17 12:12:01;;;;;;;5.25;1.30;;;;;;;;;;5053220;28;20354;-77
2023/03/17 12:14:27;;;;;;;2.47;0.85;;;;;;;;;;5065633;28;20036;-77
2023/03/17 12:16:58;;;;;;;3.97;1.02;;;;;;;;;;5064448;28;20028;-76
2023/03/17 12:19:33;;;;;;;6.88;1.33;;;;;;;;;;5069256;28;20024;-76
2023/03/17 12:22:07;;;;;;;5.28;1.30;;;;;;;;;;5058491;28;20028;-76
2023/03/17 12:24:39;;;;;;;5.85;1.38;;;;;;;;;;5058605;28;20114;-76
2023/03/17 12:27:06;;;;;;;;;;;;;;;;;;5065704;28;20061;-77
2023/03/17 12:29:42;;;;;;;7.78;1.30;;;;;;;;;;5066597;28;19928;-76
2023/03/17 12:32:16;;;;;;;4.80;1.20;;;;;;;;;;5065231;28;20033;-76
2023/03/17 12:34:42;;;;;;;7.45;1.45;;;;;;;;;;5065253;28;20078;-76
2023/03/17 12:37:08;;;;;;;5.75;1.13;;;;;;;;;;5067473;28;20133;-77
2023/03/17 12:39:35;;;;;;;4.47;1.02;;;;;;;;;;5069424;28;20033;-76
2023/03/17 12:42:20;;;;;;;5.70;1.10;;;;;;;;;;5067166;28;20798;-76
2023/03/17 12:44:52;;;;;;;5.72;1.02;;;;;;;;;;5064430;28;20032;-76
2023/03/17 12:47:21;;;;;;;6.95;1.15;;;;;;;;;;5064821;28;20032;-76
2023/03/17 12:50:03;;;;;;;4.72;0.93;;;;;;;;;;5066718;28;20425;-76
2023/03/17 12:52:32;;;;;;;4.07;0.88;;;;;;;;;;5064287;28;20373;-76
2023/03/17 12:55:00;;;;;;;6.88;1.42;;;;;;;;;;5066929;28;20041;-76
2023/03/17 12:57:38;;;;;;;6.88;1.02;;;;;;;;;;5067888;28;20028;-76
2023/03/17 13:00:14;;;;;;;7.45;1.10;;;;;;;;;;5068089;28;20032;-76
2023/03/17 13:02:40;;;;;;;6.32;1.30;;;;;;;;;;5066871;28;20044;-76
2023/03/17 13:05:13;;;;;;;9.98;1.05;;;;;;;;;;5066832;28;20120;-76
2023/03/17 13:07:59;;;;;;;6.88;1.25;;;;;;;;;;5062489;28;20090;-76
2023/03/17 13:10:36;;;;;;;3.88;1.00;;;;;;;;;;5062641;28;20029;-76
2023/03/17 13:13:05;;;;;;;10.52;2.40;;;;;;;;;;5064566;28;20059;-76
2023/03/17 13:15:31;;;;;;;6.05;2.30;;;;;;;;;;5062120;28;20028;-76
2023/03/17 13:18:15;;;;;;;7.97;1.85;;;;;;;;;;5064177;28;20040;-76
2023/03/17 13:20:42;;;;;;;6.50;1.20;;;;;;;;;;5063287;28;20477;-76
2023/03/17 13:23:11;;;;;;;10.27;1.35;;;;;;;;;;5061204;28;20040;-76
2023/03/17 13:25:46;;;;;;;5.95;1.13;;;;;;;;;;5064659;28;20032;-76
2023/03/17 13:28:13;;;;;;;6.55;1.20;;;;;;;;;;5065136;28;20039;-76
2023/03/17 13:30:39;;;;;;;5.88;1.10;;;;;;;;;;5069203;28;20810;-76
2023/03/17 13:33:08;;;;;;;5.28;1.13;;;;;;;;;;5065750;28;20124;-76
2023/03/17 13:35:53;;;;;;;8.82;1.02;;;;;;;;;;5065659;28;20027;-76
2023/03/17 13:38:19;;;;;;;8.02;1.00;;;;;;;;;;5060134;28;20041;-76
2023/03/17 13:40:45;;;;;;;3.17;1.05;;;;;;;;;;5066120;28;20435;-75
2023/03/17 13:43:20;;;;;;;5.20;1.10;;;;;;;;;;5068173;28;20079;-76
2023/03/17 13:45:48;;;;;;;5.93;0.95;;;;;;;;;;5067831;28;20029;-76
2023/03/17 13:48:23;;;;;;;4.72;1.02;;;;;;;;;;5066787;28;20055;-77
2023/03/17 13:50:53;;;;;;;5.22;1.40;;;;;;;;;;5057255;28;20032;-77
2023/03/17 13:53:23;;;;;;;8.27;1.55;;;;;;;;;;5064984;28;20056;-76
2023/03/17 13:56:10;;;;;;;6.18;1.23;;;;;;;;;;5066328;28;20052;-76
2023/03/17 13:58:49;;;;;;;4.75;1.05;;;;;;;;;;5067303;28;20098;-76
2023/03/17 14:01:15;;;;;;;6.88;2.05;;;;;;;;;;5063112;28;20036;-77
2023/03/17 14:03:47;;;;;;;6.40;1.38;;;;;;;;;;5065845;28;20052;-76
2023/03/17 14:06:13;;;;;;;4.35;0.80;;;;;;;;;;5060314;28;20032;-76
2023/03/17 14:08:50;;;;;;;4.75;0.85;;;;;;;;;;5062443;28;20412;-76
2023/03/17 14:11:21;;;;;;;6.43;0.90;;;;;;;;;;5063671;28;20681;-76
2023/03/17 14:14:06;;;;;;;3.67;0.90;;;;;;;;;;5068490;28;20033;-76
2023/03/17 14:16:34;;;;;;;5.13;1.08;;;;;;;;;;5062733;28;20082;-77
2023/03/17 14:19:09;;;;;;;7.75;1.45;;;;;;;;;;5062093;28;20452;-76
2023/03/17 14:21:35;;;;;;;7.72;1.13;;;;;;;;;;5063727;28;20123;-76
2023/03/17 14:24:06;;;;;;;3.47;0.95;;;;;;;;;;5052848;28;20144;-76
2023/03/17 14:26:32;;;;;;;6.07;1.20;;;;;;;;;;5059767;28;20802;-76
2023/03/17 14:28:59;;;;;;;5.72;1.48;;;;;;;;;;5056626;28;20043;-76
2023/03/17 14:31:26;;;;;;;8.40;1.20;;;;;;;;;;5057219;28;20024;-76
2023/03/17 14:33:54;;;;;;;5.50;1.02;;;;;;;;;;5068253;28;20115;-76